Kodiak, AK

1:07 AM AKDT on July 04, 2015 (GMT -0800)
NOS_NWLON | | Change Station
CLOSE
Current Station
Personal Weather Station
Location: Kodiak, AK
Elevation: 0 ft
Nearby Weather Stations

Elev 0 ft 57.73 °N, 152.51 °W | Updated 31 minutes ago

Overcast
Overcast
53 °F
Feels Like 53 °F
N
8
Wind Variable Wind from NE
Gusts 11.0 mph

Today
High -- | Low -- °F
--% Chance of Precip.
Yesterday
High -- | Low -- °F
Precip. -- in
5:17 AM 11:10 PM
Waning Gibbous, 93% visible
Pressure 30.05 in
Visibility 10.0 miles
Clouds Scattered Clouds 1500 ft
Mostly Cloudy 2200 ft
Overcast 6000 ft
Dew Point Not available.
Humidity Not available.
Rainfall in
Snow Depth Not available.
UV 0 out of 12
Pollen Not available.
Air Quality Not available.
Flu Activity Not available.
SPECI PADQ 040901Z 05010KT 10SM SCT015 BKN022 OVC060 12/11 A3005 RMK AO2 T01220106 $

More Conditions Fewer Conditions

Pressure 30.05 in
Visibility 10.0 miles
Clouds Scattered Clouds 1500 ft
Mostly Cloudy 2200 ft
Overcast 6000 ft
Dew Point Not available.
Humidity Not available.
Rainfall in
Snow Depth Not available.
UV 0 out of 12
Pollen Not available.
Air Quality Not available.
Flu Activity Not available.
SPECI PADQ 040901Z 05010KT 10SM SCT015 BKN022 OVC060 12/11 A3005 RMK AO2 T01220106 $

More Conditions Fewer Conditions

10-Day Weather Forecast

×

Almanac

Astronomy

Jul. 04, 2015 Rise Set
Actual Time
Civil Twilight
Nautical Twilight
Astronomical Twilight
Moon
Length of Visible Light
Length of Day
Tomorrow will be .
, % of the Moon is Illuminated

Today's Extremes

State Highs State Lows

Community

WunderPhotos

Upload Photos

1,834,931 photos uploaded!

WunderBlogs® & News

Nearby

Air Quality

  Air Quality AQ Index Pollutant
Not available.

Snow Depth

Station Depth Elevation

Earthquake Activity

City Distance Mag. Time & Date
Minimum magnitude displayed is 2.5.

Coastal Water Temperatures

Place Temperature

Stations

Nearby Weather Stations

Station Location Temp. Windchill Dew Point Humidity Wind Precip. Elev Updated Type